West Woodward Airport Woodward US
ICAO: KWWR
IATA: WWR
Category: Medium
Scheduled Services: No

Elevation: 2189 ft
TransAlt. 18000 ft.

Airport Communications:
AWOS 3:118.425
KANSAS CITY CNTR:126.95
CTAF/UNICOM:122.8

KWWR Zoom In..

Runways:

(A) RW 05 length 2500 ft width 60 ft
---- / hdg 52

(B) RW 17 length 5502 ft width 100 ft
---- / hdg 172

(C) RW 23 length 2500 ft width 60 ft
---- / hdg 232

(D) RW 35 length 5502 ft width 100 ft
---- / hdg 352

Location; KWWR
Day. 03 / Time. 11.35 Zulu
* Altimeter: 30.19
* Temperature: 16° c. 60.8°f.
* Wind from: 250° Speed 03 kn.
Dewpoint: 13° c.
Visibility: 10 Statute Miles.
Clouds: Scattered 5500 ft.
Clouds: Broken 7500 ft.

KWWR 031135Z AUTO 25003KT 10SM SCT055 BKN075 16/13 A3019 RMK AO2 LTG DSNT NW

Going to: --> -->


Wind From 250°
Speed 03 kn.

 
 
jpsmedia worldairports.se 2020   terms of use